• Join FlightAware (Why Join?)
  • Login
  • US Flag 
06:06AM EDT


 

Airport Tracker/Info


-or-


 

Live Flight TrackerFlight Track Log ✈ N799J ✈ 21-Oct-2013 ✈ KBDR - KBTV

Flight Track Log - Related Links

Times and Time Zones

All times are in EDT time to prevent confusion due to time zone crossing. See the N799J flight status page for this flight to view local times or setup timezone preferences in your user account.

Time Position Orientation Groundspeed Altitude Reporting Facility
EDT Latitude Longitude Course Direction KTS MPH feet Rate Location/Type
01:02PM 41.4311 -72.6625 359° North 140 161 4,500  Level Boston Center
01:02PM 41.4322 -72.6650 301° West 139 160 4,600  Climbing Boston Center
01:03PM 41.4647 -72.6886 331° Northwest 139 160 4,500 -120 Descending Boston Center
01:03PM 41.4681 -72.6897 346° North 135 155 4,500  Level Boston Center
01:04PM 41.5022 -72.7136 332° Northwest 137 158 4,500  Level Boston Center
01:05PM 41.5331 -72.7361 331° Northwest 138 159 4,500  Level Boston Center
01:05PM 41.5364 -72.7372 346° North 138 159 4,500  Level Boston Center
01:06PM 41.3721 -73.1215 North  Level FlightAware Approximate
01:06PM 41.5711 -72.7611 333° Northwest 141 162 4,500  Level Boston Center
01:07PM 41.4068 -73.1207 North  Level FlightAware Approximate
01:07PM 41.5956 -72.7786 332° Northwest 139 160 4,500  Level Boston Center
01:07PM 41.6083 -72.7878 332° Northwest 141 162 4,500  Level Boston Center
01:08PM 41.4416 -73.1210 359° North  Level Estimated
01:08PM 41.6428 -72.8128 332° Northwest 141 162 4,500  Level Boston Center
01:08PM 41.6436 -72.8122 26° Northeast 142 163 4,500  Level Boston Center
01:09PM 41.6767 -72.8364 331° Northwest 141 162 4,500  Level Boston Center
01:09PM 41.6778 -72.8356 29° Northeast 139 160 4,500  Level Boston Center
01:11PM 41.7167 -72.8603 335° Northwest 143 165 4,500  Level Boston Center
01:12PM 41.7472 -72.8822 332° Northwest 138 159 4,500  Level Boston Center
01:12PM 41.7506 -72.8825 356° North 137 158 4,500  Level Boston Center
01:13PM 41.7794 -72.9053 330° Northwest 133 153 4,500  Level Boston Center
01:13PM 41.7839 -72.9053 360° North 135 155 4,500  Level Boston Center
01:14PM 41.8114 -72.9283 328° Northwest 135 155 4,500  Level Boston Center
01:14PM 41.8186 -72.9333 333° Northwest 137 158 4,500  Level Boston Center
01:15PM 41.8528 -72.9583 331° Northwest 138 159 4,500  Level Boston Center
01:16PM 41.8839 -72.9864 326° Northwest 138 159 4,500  Level Boston Center
01:17PM 41.9178 -73.0103 332° Northwest 136 157 4,500  Level Boston Center
01:17PM 41.9186 -73.0083 60° Northeast 135 155 4,500  Level Boston Center
01:18PM 41.9558 -73.0342 333° Northwest 140 161 4,500  Level Boston Center
01:18PM 41.9764 -73.0519 327° Northwest 140 161 4,500  Level Boston Center
01:19PM 41.9903 -73.0589 340° North 140 161 4,500  Level Boston Center
01:20PM 42.0231 -73.0825 332° Northwest 134 154 4,500  Level Boston Center
01:21PM 42.0514 -73.1083 326° Northwest 137 158 4,500  Level Boston Center
01:21PM 42.0581 -73.1119 338° Northwest 138 159 4,500  Level Boston Center
01:21PM 42.0786 -73.1328 323° Northwest 135 155 4,500  Level Boston Center
01:22PM 42.0903 -73.1392 338° Northwest 135 155 4,500  Level Boston Center
01:23PM 42.1128 -73.1569 330° Northwest 138 159 4,500  Level Boston Center
01:23PM 42.1239 -73.1639 335° Northwest 138 159 4,500 60 Level Boston Center
01:23PM 42.1428 -73.1797 328° Northwest 134 154 4,600 180 Climbing Boston Center
01:24PM 42.1558 -73.1889 333° Northwest 134 154 4,700  Climbing Boston Center
01:24PM 42.1731 -73.2058 324° Northwest 134 154 4,600 -240 Descending Boston Center
01:25PM 42.1917 -73.2164 337° Northwest 139 160 4,500 -180 Descending Boston Center
01:26PM 42.2264 -73.2433 330° Northwest 143 165 4,400 -120 Descending Boston Center
01:26PM 42.2258 -73.2461 255° West 145 167 4,400 180 Level Boston Center
01:27PM 42.2578 -73.2708 330° Northwest 133 153 4,600 60 Climbing Boston Center
01:28PM 42.2947 -73.2956 334° Northwest 140 161 4,600 -60 Level Boston Center
01:29PM 42.3253 -73.3247 325° Northwest 144 166 4,500 -60 Descending Boston Center
01:30PM 42.3497 -73.3442 330° Northwest 140 161 4,500  Level Boston Center
01:30PM 42.3628 -73.3506 340° North 139 160 4,500  Level Boston Center
01:31PM 42.3933 -73.3758 329° Northwest 135 155 4,500  Level Boston Center
01:31PM 42.3950 -73.3769 334° Northwest 136 157 4,500 60 Level Boston Center
01:32PM 42.4272 -73.4017 330° Northwest 136 157 4,600 60 Climbing Boston Center
01:32PM 42.4306 -73.4031 343° North 135 155 4,600  Level Boston Center
01:33PM 42.4578 -73.4233 331° Northwest 139 160 4,600  Level Boston Center
01:33PM 42.4653 -73.4283 334° Northwest 141 162 4,600 60 Level Boston Center
01:34PM 42.4917 -73.4489 330° Northwest 138 159 4,700 180 Climbing Boston Center
01:34PM 42.4981 -73.4514 344° North 135 155 4,800 480 Climbing Boston Center
01:35PM 42.5339 -73.4464 North 129 148 5,300 420 Climbing Boston Center
01:36PM 42.5614 -73.4431 North 127 146 5,600 300 Climbing Boston Center
01:36PM 42.5722 -73.4411 North 129 148 5,600  Level Boston Center
01:37PM 42.5994 -73.4353 North 141 162 5,600  Level Boston Center
01:37PM 42.6114 -73.4328 North 141 162 5,600  Level Boston Center
01:38PM 42.6411 -73.4289 North 150 173 5,600  Level Boston Center
01:38PM 42.6528 -73.4294 358° North 148 170 5,600  Level Boston Center
01:39PM 42.6892 -73.4244 North 150 173 5,600  Level Boston Center
01:39PM 42.6969 -73.4217 15° North 149 171 5,600  Level Boston Center
01:40PM 42.7292 -73.4172 North 147 169 5,600  Level Boston Center
01:40PM 42.7372 -73.4158 North 146 168 5,600  Level Boston Center
01:41PM 42.7581 -73.4122 North 148 170 5,600  Level Boston Center
01:41PM 42.7789 -73.4111 North 149 171 5,600  Level Boston Center
01:42PM 42.7994 -73.4083 North 149 171 5,600  Level Boston Center
01:42PM 42.8222 -73.4053 North 147 169 5,600  Level Boston Center
01:43PM 42.8564 -73.4011 North 148 170 5,600  Level Boston Center
01:43PM 42.8633 -73.4017 357° North 148 170 5,600  Level Boston Center
01:44PM 42.8828 -73.3981 North 144 166 5,600  Level Boston Center
01:44PM 42.9031 -73.3975 North 144 166 5,600  Level Boston Center
01:45PM 42.9242 -73.3944 North 145 167 5,600  Level Boston Center
01:45PM 42.9467 -73.3928 North 146 168 5,600  Level Boston Center
01:46PM 42.9675 -73.3914 North 145 167 5,600 60 Level Boston Center
01:46PM 42.9867 -73.3906 North 145 167 5,700 60 Climbing Boston Center
01:47PM 43.0111 -73.3883 North 146 168 5,700  Level Boston Center
01:47PM 43.0272 -73.3858 North 146 168 5,700  Level Boston Center
01:48PM 43.0483 -73.3831 North 146 168 5,700  Level Boston Center
01:48PM 43.0675 -73.3817 North 146 168 5,700 -120 Level Boston Center
01:49PM 43.0950 -73.3753 10° North 146 168 5,600 -120 Descending Boston Center
01:49PM 43.1100 -73.3747 North 144 166 5,600  Level Boston Center
01:50PM 43.1500 -73.3703 North 143 165 5,600  Level Boston Center
01:51PM 43.1908 -73.3642 North 147 169 5,600  Level Boston Center
01:53PM 43.2361 -73.3586 North 151 174 5,600  Level Boston Center
01:54PM 43.2769 -73.3533 North 149 171 5,600  Level Boston Center
01:55PM 43.3175 -73.3478 North 147 169 5,600  Level Boston Center
01:56PM 43.3583 -73.3431 North 148 170 5,600  Level Boston Center
01:57PM 43.3994 -73.3383 North 148 170 5,600  Level Boston Center
01:58PM 43.4381 -73.3342 North 146 168 5,600  Level Boston Center
01:59PM 43.4789 -73.3289 North 147 169 5,600  Level Boston Center
02:00PM 43.5286 -73.3214 North 149 171 5,600  Level Boston Center
02:01PM 43.5694 -73.3150 North 147 169 5,600  Level Boston Center
02:02PM 43.6114 -73.3064 North 150 173 5,600  Level Boston Center
02:03PM 43.6525 -73.2969 North 150 173 5,600 -60 Level Boston Center
02:04PM 43.6969 -73.2933 North 152 175 5,500 -60 Descending Boston Center
02:05PM 43.7414 -73.2839 North 150 173 5,500  Level Boston Center
02:06PM 43.7828 -73.2758 North 151 174 5,500  Level Boston Center
02:07PM 43.8247 -73.2683 North 152 175 5,500  Level Boston Center
02:08PM 43.8681 -73.2603 North 147 169 5,500  Level Boston Center
02:09PM 43.9092 -73.2533 North 149 171 5,500  Level Boston Center
02:10PM 43.9531 -73.2447 North 151 174 5,500 -180 Level Boston Center
02:11PM 43.9958 -73.2383 North 155 178 5,200 -300 Descending Boston Center
02:12PM 44.0369 -73.2317 North 151 174 4,900 -360 Descending Boston Center
02:13PM 44.0819 -73.2242 North 152 175 4,500 -420 Descending Boston Center
02:14PM 44.1242 -73.2206 North 154 177 4,100 -480 Descending Boston Center
02:15PM 44.1700 -73.2158 North 153 176 3,600 -480 Descending Boston Center
02:16PM 44.2128 -73.2111 North 156 180 3,200 -420 Descending Boston Center
02:17PM 44.2550 -73.2036 North 154 177 2,800 -420 Descending Boston Center
02:18PM 44.3014 -73.1958 North 156 180 2,400 -420 Descending Boston Center
02:19PM 44.3442 -73.1894 North 156 180 2,000 -420 Descending Boston Center
02:20PM 44.3892 -73.1900 359° North 151 174 1,600 -180 Descending Boston Center
02:21PM 44.4250 -73.2031 345° North 136 157 1,700 -60 Climbing Boston Center
02:22PM 44.4611 -73.2108 351° North 132 152 1,500 -360 Descending Boston Center
02:23PM 44.4900 -73.1886 29° Northeast 115 132 1,000 -420 Descending Boston Center
02:24PM 44.4856 -73.1597 102° East 77 89 700 -360 Descending Boston Center
02:25PM 44.4711 -73.1517 158° South 57 66 300 -420 Descending Boston Center